sensor_id;sensor_type;location;lat;lon;timestamp;temperature;humidity
53643;DHT22;39546;45.534;12.048;2022-12-07T00:01:51;7.20;85.80
53643;DHT22;39546;45.534;12.048;2022-12-07T00:07:53;7.30;85.80
53643;DHT22;39546;45.534;12.048;2022-12-07T00:14:02;7.10;85.70
53643;DHT22;39546;45.534;12.048;2022-12-07T00:20:04;6.90;85.60
53643;DHT22;39546;45.534;12.048;2022-12-07T00:26:09;6.90;86.10
53643;DHT22;39546;45.534;12.048;2022-12-07T00:32:11;6.80;85.80
53643;DHT22;39546;45.534;12.048;2022-12-07T00:38:14;6.80;85.90
53643;DHT22;39546;45.534;12.048;2022-12-07T00:44:40;6.70;85.70
53643;DHT22;39546;45.534;12.048;2022-12-07T00:50:42;6.80;86.20
53643;DHT22;39546;45.534;12.048;2022-12-07T00:56:44;7.20;86.20
53643;DHT22;39546;45.534;12.048;2022-12-07T01:02:46;7.40;85.90
53643;DHT22;39546;45.534;12.048;2022-12-07T01:08:49;7.50;85.60
53643;DHT22;39546;45.534;12.048;2022-12-07T01:14:50;7.30;85.60
53643;DHT22;39546;45.534;12.048;2022-12-07T01:21:04;7.50;85.90
53643;DHT22;39546;45.534;12.048;2022-12-07T01:27:06;7.80;85.40
53643;DHT22;39546;45.534;12.048;2022-12-07T01:33:08;7.80;85.10
53643;DHT22;39546;45.534;12.048;2022-12-07T01:39:11;7.50;84.90
53643;DHT22;39546;45.534;12.048;2022-12-07T01:45:34;7.40;85.50
53643;DHT22;39546;45.534;12.048;2022-12-07T01:51:40;7.50;85.50
53643;DHT22;39546;45.534;12.048;2022-12-07T01:57:50;7.40;85.10
53643;DHT22;39546;45.534;12.048;2022-12-07T02:03:53;7.20;85.20
53643;DHT22;39546;45.534;12.048;2022-12-07T02:09:55;6.90;85.30
53643;DHT22;39546;45.534;12.048;2022-12-07T02:35:28;6.40;85.90
53643;DHT22;39546;45.534;12.048;2022-12-07T02:41:47;6.50;85.90
53643;DHT22;39546;45.534;12.048;2022-12-07T02:47:53;6.50;86.00
53643;DHT22;39546;45.534;12.048;2022-12-07T02:53:58;6.50;86.00
53643;DHT22;39546;45.534;12.048;2022-12-07T03:00:07;6.80;86.00
53643;DHT22;39546;45.534;12.048;2022-12-07T03:06:35;7.00;85.60
53643;DHT22;39546;45.534;12.048;2022-12-07T03:18:57;6.40;85.30
53643;DHT22;39546;45.534;12.048;2022-12-07T03:25:04;6.40;85.80
53643;DHT22;39546;45.534;12.048;2022-12-07T03:31:17;6.80;85.50
53643;DHT22;39546;45.534;12.048;2022-12-07T03:37:28;7.10;85.10
53643;DHT22;39546;45.534;12.048;2022-12-07T03:43:33;7.30;84.20
53643;DHT22;39546;45.534;12.048;2022-12-07T03:49:43;6.90;84.10
53643;DHT22;39546;45.534;12.048;2022-12-07T03:55:48;6.80;84.60
53643;DHT22;39546;45.534;12.048;2022-12-07T04:01:55;6.60;84.40
53643;DHT22;39546;45.534;12.048;2022-12-07T04:08:00;7.00;84.70
53643;DHT22;39546;45.534;12.048;2022-12-07T04:14:02;7.30;83.70
53643;DHT22;39546;45.534;12.048;2022-12-07T04:20:23;7.10;83.40
53643;DHT22;39546;45.534;12.048;2022-12-07T04:26:25;6.80;83.90
53643;DHT22;39546;45.534;12.048;2022-12-07T04:32:27;7.00;83.80
53643;DHT22;39546;45.534;12.048;2022-12-07T04:38:30;6.60;83.90
53643;DHT22;39546;45.534;12.048;2022-12-07T04:44:32;6.60;84.60
53643;DHT22;39546;45.534;12.048;2022-12-07T04:50:35;6.70;84.30
53643;DHT22;39546;45.534;12.048;2022-12-07T04:56:39;6.60;84.00
53643;DHT22;39546;45.534;12.048;2022-12-07T05:02:41;6.70;84.60
53643;DHT22;39546;45.534;12.048;2022-12-07T05:08:43;7.00;83.70
53643;DHT22;39546;45.534;12.048;2022-12-07T05:14:45;6.70;83.50
53643;DHT22;39546;45.534;12.048;2022-12-07T05:20:48;6.60;83.90
53643;DHT22;39546;45.534;12.048;2022-12-07T05:26:50;6.50;84.00
53643;DHT22;39546;45.534;12.048;2022-12-07T05:32:57;6.30;84.40
53643;DHT22;39546;45.534;12.048;2022-12-07T05:38:59;6.20;84.50
53643;DHT22;39546;45.534;12.048;2022-12-07T05:45:02;6.10;84.20
53643;DHT22;39546;45.534;12.048;2022-12-07T05:51:07;5.90;84.60
53643;DHT22;39546;45.534;12.048;2022-12-07T05:57:11;5.90;84.90
53643;DHT22;39546;45.534;12.048;2022-12-07T06:03:13;6.20;84.80
53643;DHT22;39546;45.534;12.048;2022-12-07T06:09:16;6.10;84.60
53643;DHT22;39546;45.534;12.048;2022-12-07T06:15:20;6.40;84.80
53643;DHT22;39546;45.534;12.048;2022-12-07T06:21:21;6.80;84.10
53643;DHT22;39546;45.534;12.048;2022-12-07T06:27:23;7.10;83.40
53643;DHT22;39546;45.534;12.048;2022-12-07T06:33:26;7.40;83.10
53643;DHT22;39546;45.534;12.048;2022-12-07T06:39:30;7.70;82.80
53643;DHT22;39546;45.534;12.048;2022-12-07T06:45:32;7.90;83.00
53643;DHT22;39546;45.534;12.048;2022-12-07T06:51:35;8.10;83.00
53643;DHT22;39546;45.534;12.048;2022-12-07T06:57:38;8.20;83.00
53643;DHT22;39546;45.534;12.048;2022-12-07T07:03:40;8.20;82.60
53643;DHT22;39546;45.534;12.048;2022-12-07T07:09:42;8.10;82.10
53643;DHT22;39546;45.534;12.048;2022-12-07T07:15:44;8.20;82.40
53643;DHT22;39546;45.534;12.048;2022-12-07T07:21:46;8.40;82.70
53643;DHT22;39546;45.534;12.048;2022-12-07T07:27:51;8.40;81.80
53643;DHT22;39546;45.534;12.048;2022-12-07T07:33:53;7.70;81.80
53643;DHT22;39546;45.534;12.048;2022-12-07T07:39:55;7.30;83.20
53643;DHT22;39546;45.534;12.048;2022-12-07T07:45:58;7.70;82.80
53643;DHT22;39546;45.534;12.048;2022-12-07T07:52:00;7.90;82.00
53643;DHT22;39546;45.534;12.048;2022-12-07T07:58:02;7.70;81.90
53643;DHT22;39546;45.534;12.048;2022-12-07T08:04:04;7.10;82.80
53643;DHT22;39546;45.534;12.048;2022-12-07T08:10:09;7.00;83.60
53643;DHT22;39546;45.534;12.048;2022-12-07T08:16:11;6.90;83.30
53643;DHT22;39546;45.534;12.048;2022-12-07T08:22:13;6.60;83.30
53643;DHT22;39546;45.534;12.048;2022-12-07T08:28:15;6.50;84.20
53643;DHT22;39546;45.534;12.048;2022-12-07T08:34:17;6.70;84.60
53643;DHT22;39546;45.534;12.048;2022-12-07T08:40:28;7.00;84.80
53643;DHT22;39546;45.534;12.048;2022-12-07T08:46:34;7.20;84.00
53643;DHT22;39546;45.534;12.048;2022-12-07T08:52:39;6.90;83.90
53643;DHT22;39546;45.534;12.048;2022-12-07T08:59:10;7.20;84.60
53643;DHT22;39546;45.534;12.048;2022-12-07T09:05:15;7.10;84.30
53643;DHT22;39546;45.534;12.048;2022-12-07T09:11:40;6.80;84.60
53643;DHT22;39546;45.534;12.048;2022-12-07T09:17:42;7.10;85.00
53643;DHT22;39546;45.534;12.048;2022-12-07T09:23:44;7.00;85.00
53643;DHT22;39546;45.534;12.048;2022-12-07T09:30:00;7.10;85.20
53643;DHT22;39546;45.534;12.048;2022-12-07T09:36:03;7.20;85.20
53643;DHT22;39546;45.534;12.048;2022-12-07T09:42:06;7.50;86.20
53643;DHT22;39546;45.534;12.048;2022-12-07T09:48:20;7.90;85.40
53643;DHT22;39546;45.534;12.048;2022-12-07T09:54:23;7.80;85.40
53643;DHT22;39546;45.534;12.048;2022-12-07T10:00:25;7.80;86.10
53643;DHT22;39546;45.534;12.048;2022-12-07T10:06:29;8.40;86.60
53643;DHT22;39546;45.534;12.048;2022-12-07T10:12:53;8.70;86.10
53643;DHT22;39546;45.534;12.048;2022-12-07T10:18:55;8.70;86.60
53643;DHT22;39546;45.534;12.048;2022-12-07T10:25:08;8.60;86.00
53643;DHT22;39546;45.534;12.048;2022-12-07T10:31:19;8.80;86.70
53643;DHT22;39546;45.534;12.048;2022-12-07T10:37:22;9.00;86.40
53643;DHT22;39546;45.534;12.048;2022-12-07T10:43:29;9.00;86.70
53643;DHT22;39546;45.534;12.048;2022-12-07T10:50:01;8.90;87.00
53643;DHT22;39546;45.534;12.048;2022-12-07T11:15:17;10.10;87.60
53643;DHT22;39546;45.534;12.048;2022-12-07T11:21:27;10.80;87.20
53643;DHT22;39546;45.534;12.048;2022-12-07T11:27:43;11.20;86.70
53643;DHT22;39546;45.534;12.048;2022-12-07T11:34:00;11.30;85.80
53643;DHT22;39546;45.534;12.048;2022-12-07T11:40:20;11.10;86.70
53643;DHT22;39546;45.534;12.048;2022-12-07T11:46:49;11.30;86.60
53643;DHT22;39546;45.534;12.048;2022-12-07T11:53:10;11.50;86.40
53643;DHT22;39546;45.534;12.048;2022-12-07T11:59:33;11.60;86.40
53643;DHT22;39546;45.534;12.048;2022-12-07T12:05:39;11.50;86.40
53643;DHT22;39546;45.534;12.048;2022-12-07T12:24:24;11.30;87.00
53643;DHT22;39546;45.534;12.048;2022-12-07T12:42:47;11.50;87.30
53643;DHT22;39546;45.534;12.048;2022-12-07T12:48:50;11.60;87.40
53643;DHT22;39546;45.534;12.048;2022-12-07T13:26:59;12.20;86.90
53643;DHT22;39546;45.534;12.048;2022-12-07T13:33:03;12.20;86.90
53643;DHT22;39546;45.534;12.048;2022-12-07T13:45:29;12.30;87.50
53643;DHT22;39546;45.534;12.048;2022-12-07T13:51:53;12.30;87.50
53643;DHT22;39546;45.534;12.048;2022-12-07T13:57:56;12.20;88.20
53643;DHT22;39546;45.534;12.048;2022-12-07T14:04:51;12.10;88.30
53643;DHT22;39546;45.534;12.048;2022-12-07T14:17:17;12.80;87.80
53643;DHT22;39546;45.534;12.048;2022-12-07T14:23:25;13.30;86.20
53643;DHT22;39546;45.534;12.048;2022-12-07T14:29:32;14.00;84.80
53643;DHT22;39546;45.534;12.048;2022-12-07T14:35:37;13.90;85.00
53643;DHT22;39546;45.534;12.048;2022-12-07T14:41:42;13.50;85.80
53643;DHT22;39546;45.534;12.048;2022-12-07T14:47:53;12.90;87.10
53643;DHT22;39546;45.534;12.048;2022-12-07T14:53:56;12.50;88.10
53643;DHT22;39546;45.534;12.048;2022-12-07T14:59:58;12.20;88.70
53643;DHT22;39546;45.534;12.048;2022-12-07T15:06:01;12.00;89.00
53643;DHT22;39546;45.534;12.048;2022-12-07T15:12:03;11.90;89.30
53643;DHT22;39546;45.534;12.048;2022-12-07T15:18:06;11.70;89.50
53643;DHT22;39546;45.534;12.048;2022-12-07T15:24:10;11.50;89.90
53643;DHT22;39546;45.534;12.048;2022-12-07T15:30:12;11.30;90.30
53643;DHT22;39546;45.534;12.048;2022-12-07T15:36:25;11.20;90.60
53643;DHT22;39546;45.534;12.048;2022-12-07T15:42:27;11.10;90.80
53643;DHT22;39546;45.534;12.048;2022-12-07T15:48:30;10.90;90.90
53643;DHT22;39546;45.534;12.048;2022-12-07T15:54:32;10.80;91.10
53643;DHT22;39546;45.534;12.048;2022-12-07T16:00:37;10.70;91.20
53643;DHT22;39546;45.534;12.048;2022-12-07T16:06:39;10.60;91.40
53643;DHT22;39546;45.534;12.048;2022-12-07T16:12:42;10.60;91.50
53643;DHT22;39546;45.534;12.048;2022-12-07T16:18:45;10.50;91.70
53643;DHT22;39546;45.534;12.048;2022-12-07T16:24:47;10.20;92.00
53643;DHT22;39546;45.534;12.048;2022-12-07T16:31:00;10.20;92.20
53643;DHT22;39546;45.534;12.048;2022-12-07T16:37:02;10.20;92.10
53643;DHT22;39546;45.534;12.048;2022-12-07T16:43:04;10.20;92.10
53643;DHT22;39546;45.534;12.048;2022-12-07T16:49:18;10.00;92.20
53643;DHT22;39546;45.534;12.048;2022-12-07T16:55:21;10.00;92.10
53643;DHT22;39546;45.534;12.048;2022-12-07T17:01:32;10.00;91.90
53643;DHT22;39546;45.534;12.048;2022-12-07T17:07:36;10.00;91.80
53643;DHT22;39546;45.534;12.048;2022-12-07T17:13:38;9.80;91.70
53643;DHT22;39546;45.534;12.048;2022-12-07T17:19:59;9.70;91.70
53643;DHT22;39546;45.534;12.048;2022-12-07T17:26:09;9.60;91.70
53643;DHT22;39546;45.534;12.048;2022-12-07T17:32:11;9.50;91.70
53643;DHT22;39546;45.534;12.048;2022-12-07T17:38:13;9.50;91.60
53643;DHT22;39546;45.534;12.048;2022-12-07T17:44:17;9.40;91.40
53643;DHT22;39546;45.534;12.048;2022-12-07T17:50:20;9.30;91.40
53643;DHT22;39546;45.534;12.048;2022-12-07T17:56:42;9.20;91.30
53643;DHT22;39546;45.534;12.048;2022-12-07T18:02:44;8.90;91.40
53643;DHT22;39546;45.534;12.048;2022-12-07T18:08:48;9.10;91.40
53643;DHT22;39546;45.534;12.048;2022-12-07T18:14:50;9.10;91.00
53643;DHT22;39546;45.534;12.048;2022-12-07T18:20:54;9.20;90.70
53643;DHT22;39546;45.534;12.048;2022-12-07T18:26:57;9.30;90.40
53643;DHT22;39546;45.534;12.048;2022-12-07T18:33:00;9.40;90.00
53643;DHT22;39546;45.534;12.048;2022-12-07T18:39:06;9.50;89.80
53643;DHT22;39546;45.534;12.048;2022-12-07T18:45:09;9.60;89.60
53643;DHT22;39546;45.534;12.048;2022-12-07T18:51:12;9.70;89.30
53643;DHT22;39546;45.534;12.048;2022-12-07T18:57:15;9.80;89.10
53643;DHT22;39546;45.534;12.048;2022-12-07T19:03:17;9.80;88.80
53643;DHT22;39546;45.534;12.048;2022-12-07T19:09:20;9.80;88.50
53643;DHT22;39546;45.534;12.048;2022-12-07T19:15:23;9.80;88.30
53643;DHT22;39546;45.534;12.048;2022-12-07T19:21:25;9.70;88.00
53643;DHT22;39546;45.534;12.048;2022-12-07T19:27:38;9.70;87.80
53643;DHT22;39546;45.534;12.048;2022-12-07T19:33:40;9.70;87.60
53643;DHT22;39546;45.534;12.048;2022-12-07T19:39:43;9.60;87.30
53643;DHT22;39546;45.534;12.048;2022-12-07T19:45:45;9.40;87.20
53643;DHT22;39546;45.534;12.048;2022-12-07T19:51:50;9.40;87.20
53643;DHT22;39546;45.534;12.048;2022-12-07T19:57:52;9.50;87.00
53643;DHT22;39546;45.534;12.048;2022-12-07T20:03:55;9.50;86.70
53643;DHT22;39546;45.534;12.048;2022-12-07T20:09:57;9.30;86.40
53643;DHT22;39546;45.534;12.048;2022-12-07T20:16:03;9.30;86.70
53643;DHT22;39546;45.534;12.048;2022-12-07T20:22:05;9.20;86.40
53643;DHT22;39546;45.534;12.048;2022-12-07T20:28:07;9.20;86.20
53643;DHT22;39546;45.534;12.048;2022-12-07T20:34:10;9.00;86.30
53643;DHT22;39546;45.534;12.048;2022-12-07T20:40:12;9.00;86.10
53643;DHT22;39546;45.534;12.048;2022-12-07T20:46:14;8.90;85.80
53643;DHT22;39546;45.534;12.048;2022-12-07T20:52:16;8.90;85.60
53643;DHT22;39546;45.534;12.048;2022-12-07T20:58:21;8.80;85.40
53643;DHT22;39546;45.534;12.048;2022-12-07T21:04:23;8.70;85.30
53643;DHT22;39546;45.534;12.048;2022-12-07T21:10:25;8.60;85.40
53643;DHT22;39546;45.534;12.048;2022-12-07T21:16:29;8.60;85.20
53643;DHT22;39546;45.534;12.048;2022-12-07T21:22:54;8.50;85.10
53643;DHT22;39546;45.534;12.048;2022-12-07T21:28:57;8.50;84.90
53643;DHT22;39546;45.534;12.048;2022-12-07T21:34:59;8.30;85.20
53643;DHT22;39546;45.534;12.048;2022-12-07T21:41:25;8.30;85.30
53643;DHT22;39546;45.534;12.048;2022-12-07T21:47:27;8.30;85.10
53643;DHT22;39546;45.534;12.048;2022-12-07T21:53:29;8.30;85.00
53643;DHT22;39546;45.534;12.048;2022-12-07T21:59:31;8.20;84.90
53643;DHT22;39546;45.534;12.048;2022-12-07T22:05:34;8.20;84.70
53643;DHT22;39546;45.534;12.048;2022-12-07T22:11:37;8.20;84.60
53643;DHT22;39546;45.534;12.048;2022-12-07T22:17:39;8.20;84.70
53643;DHT22;39546;45.534;12.048;2022-12-07T22:23:41;8.20;84.50
53643;DHT22;39546;45.534;12.048;2022-12-07T22:29:44;8.10;84.40
53643;DHT22;39546;45.534;12.048;2022-12-07T22:35:51;8.00;84.30
53643;DHT22;39546;45.534;12.048;2022-12-07T22:41:59;7.90;84.20
53643;DHT22;39546;45.534;12.048;2022-12-07T22:48:01;8.00;84.20
53643;DHT22;39546;45.534;12.048;2022-12-07T22:54:06;8.00;84.10
53643;DHT22;39546;45.534;12.048;2022-12-07T23:00:08;8.00;83.90
53643;DHT22;39546;45.534;12.048;2022-12-07T23:06:18;8.00;83.90
53643;DHT22;39546;45.534;12.048;2022-12-07T23:12:21;7.90;83.80
53643;DHT22;39546;45.534;12.048;2022-12-07T23:25:05;7.80;84.00
53643;DHT22;39546;45.534;12.048;2022-12-07T23:31:13;7.90;84.10
53643;DHT22;39546;45.534;12.048;2022-12-07T23:37:16;7.90;84.10
53643;DHT22;39546;45.534;12.048;2022-12-07T23:43:18;7.80;84.00
53643;DHT22;39546;45.534;12.048;2022-12-07T23:49:20;7.80;84.10
53643;DHT22;39546;45.534;12.048;2022-12-07T23:55:22;7.80;84.10
